Port Clements, Canada
Current Conditions -  °F | °C
As of 8:22 AM on Thursday 29 Jan 2015 (Local Time) from CZMT Reporting Station
Light Fog Light Fog  
Wind Chill: 39°   Ceiling: 1200
Heat Index: 39°   Visibility: 15mi
Dew Point: 39°   Wind: 2mph
Humidity: 100%   Direction: NA
Pressure: 30.2"   Gusts: NA
Location:  53.68°N, 132.17°W
Report Text: CZMT 291622Z VRB02KT 15SM MIFG BKN012 BKN210 04/04 A3020 RMK SC5CI1 SLP227
Loading
Personal Weather Stations






























Interactive Weather Map New forecast layout! Learn more

10-Day Weather Forecast

Advertisements
Track Severe Weather on mobile